Lyon Station, Pennsylvania
Current Conditions -  °F | °C
As of 4:15 PM on Sunday 23 Nov 2014 (Local Time) from KXLL Reporting Station
Clear Clear  
Wind Chill: 12°   Ceiling: Unl
Heat Index: 12°   Visibility: 10mi
Dew Point: -3°   Wind: 6mph
Humidity: 35%   Direction: 140°SE
Pressure: 30.1"   Gusts: NA
Location:  40.51°N, 75.74°W
Report Text: KXLL 232115Z AUTO 14005KT 10SM CLR 12/M03 A3010 RMK AO2
Loading
Personal Weather Stations






























Interactive Weather Map New forecast layout! Learn more

10-Day Weather Forecast

Advertisements
Track Severe Weather on mobile